Time;durP1;ratioP1;P1;durP2;ratioP2;P2;SDS_P1;SDS_P2;PMS_P1;PMS_P2;Temp;Humidity;BMP_temperature;BMP_pressure;BME280_temperature;BME280_humidity;BME280_pressure;Samples;Min_cycle;Max_cycle;Signal;HPM_P1;HPM_P2
2023/01/30 00:00:52;;;;;;;12.23;5.53;;;;;;;;;;4853083;29;20219;-61
2023/01/30 00:03:20;;;;;;;6.80;4.23;;;;;;;;;;4845291;29;20731;-61
2023/01/30 00:05:47;;;;;;;6.87;4.03;;;;;;;;;;4850170;29;20216;-61
2023/01/30 00:08:15;;;;;;;6.40;3.77;;;;;;;;;;4851557;29;20601;-61
2023/01/30 00:10:42;;;;;;;7.13;5.20;;;;;;;;;;4853785;29;20221;-61
2023/01/30 00:13:09;;;;;;;7.40;3.23;;;;;;;;;;4851749;29;20227;-62
2023/01/30 00:15:36;;;;;;;9.37;4.77;;;;;;;;;;4849719;29;20287;-61
2023/01/30 00:18:03;;;;;;;8.87;3.80;;;;;;;;;;4847552;29;20663;-61
2023/01/30 00:20:32;;;;;;;3.30;3.00;;;;;;;;;;4851023;29;20259;-61
2023/01/30 00:22:59;;;;;;;5.83;3.90;;;;;;;;;;4851621;29;20270;-61
2023/01/30 00:25:26;;;;;;;4.63;3.23;;;;;;;;;;4853219;29;20216;-61
2023/01/30 00:27:53;;;;;;;4.83;3.23;;;;;;;;;;4853199;29;20231;-61
2023/01/30 00:30:20;;;;;;;6.67;4.30;;;;;;;;;;4847195;29;20819;-64
2023/01/30 00:32:47;;;;;;;8.93;4.83;;;;;;;;;;4848841;29;20221;-61
2023/01/30 00:35:14;;;;;;;6.17;3.73;;;;;;;;;;4847775;29;20217;-62
2023/01/30 00:37:43;;;;;;;3.73;3.27;;;;;;;;;;4851685;29;20209;-62
2023/01/30 00:40:10;;;;;;;8.23;3.83;;;;;;;;;;4850163;29;20225;-60
2023/01/30 00:48:07;;;;;;;6.07;3.30;;;;;;;;;;4846910;29;20762;-60
2023/01/30 00:50:42;;;;;;;6.77;3.70;;;;;;;;;;4849726;29;20717;-61
2023/01/30 00:53:11;;;;;;;6.43;3.90;;;;;;;;;;4849426;29;20312;-61
2023/01/30 00:55:38;;;;;;;8.37;4.77;;;;;;;;;;4845270;29;20215;-62
2023/01/30 00:58:05;;;;;;;10.73;4.73;;;;;;;;;;4847356;29;20213;-63
2023/01/30 01:00:32;;;;;;;7.47;3.87;;;;;;;;;;4852396;29;20213;-63
2023/01/30 01:03:00;;;;;;;6.10;4.40;;;;;;;;;;4852390;29;20285;-63
2023/01/30 01:05:27;;;;;;;6.60;4.17;;;;;;;;;;4848751;29;20217;-63
2023/01/30 01:07:55;;;;;;;6.77;4.57;;;;;;;;;;4848894;29;20230;-63
2023/01/30 01:10:23;;;;;;;8.90;4.90;;;;;;;;;;4849886;29;20220;-60
2023/01/30 01:12:52;;;;;;;6.13;4.07;;;;;;;;;;4848786;29;20869;-60
2023/01/30 01:15:22;;;;;;;10.63;4.67;;;;;;;;;;4850738;29;20308;-60
2023/01/30 01:17:49;;;;;;;5.50;4.13;;;;;;;;;;4852145;29;20213;-60
2023/01/30 01:20:16;;;;;;;6.30;4.13;;;;;;;;;;4849813;29;20241;-63
2023/01/30 01:22:43;;;;;;;8.60;4.13;;;;;;;;;;4849909;29;20768;-63
2023/01/30 01:25:11;;;;;;;5.83;3.87;;;;;;;;;;4846554;29;20213;-60
2023/01/30 01:27:39;;;;;;;7.33;3.77;;;;;;;;;;4845381;29;20293;-60
2023/01/30 01:30:07;;;;;;;5.93;4.07;;;;;;;;;;4851629;29;20268;-61
2023/01/30 01:32:34;;;;;;;6.23;4.70;;;;;;;;;;4852022;29;20221;-61
2023/01/30 01:35:01;;;;;;;6.70;4.03;;;;;;;;;;4849843;29;20225;-63
2023/01/30 01:37:28;;;;;;;5.07;3.47;;;;;;;;;;4848975;29;20589;-61
2023/01/30 01:42:41;;;;;;;7.73;3.77;;;;;;;;;;4847764;29;20275;-61
2023/01/30 01:45:14;;;;;;;10.47;4.80;;;;;;;;;;4848522;29;20644;-61
2023/01/30 01:47:42;;;;;;;7.53;3.47;;;;;;;;;;4850519;29;20233;-61
2023/01/30 01:50:12;;;;;;;5.50;3.60;;;;;;;;;;4847619;29;20224;-60
2023/01/30 01:52:40;;;;;;;7.00;3.90;;;;;;;;;;4845600;29;20731;-60
2023/01/30 01:55:07;;;;;;;8.33;4.07;;;;;;;;;;4846897;29;20294;-61
2023/01/30 01:57:38;;;;;;;6.10;3.40;;;;;;;;;;4849340;29;20236;-61
2023/01/30 02:00:10;;;;;;;6.50;3.67;;;;;;;;;;4849634;29;20433;-61
2023/01/30 02:02:37;;;;;;;7.43;4.23;;;;;;;;;;4849171;29;20605;-61
2023/01/30 02:05:05;;;;;;;6.63;3.73;;;;;;;;;;4850312;29;20269;-63
2023/01/30 02:07:35;;;;;;;5.57;4.03;;;;;;;;;;4848647;29;20293;-61
2023/01/30 02:10:02;;;;;;;6.33;3.73;;;;;;;;;;4846000;29;20227;-61
2023/01/30 02:12:30;;;;;;;5.00;3.27;;;;;;;;;;4846673;29;20209;-61
2023/01/30 02:14:58;;;;;;;6.67;4.70;;;;;;;;;;4847456;29;20217;-61
2023/01/30 02:17:26;;;;;;;5.87;3.70;;;;;;;;;;4846558;29;20221;-61
2023/01/30 02:19:55;;;;;;;6.90;3.57;;;;;;;;;;4846688;29;20217;-60
2023/01/30 02:22:37;;;;;;;6.63;3.30;;;;;;;;;;4845363;29;20271;-61
2023/01/30 02:25:10;;;;;;;5.67;3.07;;;;;;;;;;4845933;29;20703;-61
2023/01/30 02:27:48;;;;;;;8.20;3.77;;;;;;;;;;4850144;29;20237;-61
2023/01/30 02:30:24;;;;;;;4.50;3.47;;;;;;;;;;4840297;29;20221;-61
2023/01/30 02:32:57;;;;;;;5.77;3.43;;;;;;;;;;4847262;29;20225;-61
2023/01/30 02:35:29;;;;;;;7.17;3.53;;;;;;;;;;4845221;29;20206;-60
2023/01/30 02:38:02;;;;;;;6.00;3.57;;;;;;;;;;4846522;29;20216;-60
2023/01/30 02:40:35;;;;;;;5.07;4.03;;;;;;;;;;4850943;29;20220;-60
2023/01/30 02:43:06;;;;;;;8.60;4.53;;;;;;;;;;4848825;29;20222;-61
2023/01/30 02:45:36;;;;;;;6.23;3.87;;;;;;;;;;4849877;29;20746;-61
2023/01/30 02:48:06;;;;;;;8.20;4.93;;;;;;;;;;4851037;29;20744;-61
2023/01/30 02:50:35;;;;;;;7.67;4.30;;;;;;;;;;4849934;29;20226;-61
2023/01/30 02:53:03;;;;;;;8.40;4.23;;;;;;;;;;4852204;29;20391;-61
2023/01/30 02:55:30;;;;;;;9.90;4.30;;;;;;;;;;4850785;29;20228;-61
2023/01/30 02:57:57;;;;;;;6.90;3.87;;;;;;;;;;4853567;29;20229;-61
2023/01/30 03:00:29;;;;;;;7.60;4.17;;;;;;;;;;4849911;29;20218;-61
2023/01/30 03:03:13;;;;;;;11.10;5.30;;;;;;;;;;4852566;29;20225;-60
2023/01/30 03:05:54;;;;;;;6.00;4.10;;;;;;;;;;4847673;29;20244;-60
2023/01/30 03:08:26;;;;;;;11.17;4.67;;;;;;;;;;4850592;29;20242;-61
2023/01/30 03:10:56;;;;;;;7.57;4.10;;;;;;;;;;4850699;29;20220;-61
2023/01/30 03:13:28;;;;;;;9.97;4.93;;;;;;;;;;4854362;29;20214;-61
2023/01/30 03:15:56;;;;;;;12.40;4.63;;;;;;;;;;4853872;29;20235;-61
2023/01/30 03:18:24;;;;;;;10.73;4.97;;;;;;;;;;4851897;29;21166;-61
2023/01/30 03:20:51;;;;;;;9.73;4.10;;;;;;;;;;4849610;29;20247;-61
2023/01/30 03:23:18;;;;;;;6.80;4.83;;;;;;;;;;4849311;29;20242;-61
2023/01/30 03:25:46;;;;;;;7.03;3.47;;;;;;;;;;4852734;29;20693;-61
2023/01/30 03:28:15;;;;;;;11.33;5.53;;;;;;;;;;4840720;29;20239;-61
2023/01/30 03:30:42;;;;;;;7.47;4.57;;;;;;;;;;4853943;29;20217;-61
2023/01/30 03:33:09;;;;;;;4.77;4.13;;;;;;;;;;4850801;29;20636;-63
2023/01/30 03:35:37;;;;;;;4.13;3.30;;;;;;;;;;4848964;29;20217;-61
2023/01/30 03:38:04;;;;;;;10.67;4.77;;;;;;;;;;4850500;29;20205;-61
2023/01/30 03:40:31;;;;;;;7.50;3.90;;;;;;;;;;4850766;29;20221;-61
2023/01/30 03:42:58;;;;;;;5.53;3.63;;;;;;;;;;4852511;29;20221;-61
2023/01/30 03:45:25;;;;;;;7.77;4.30;;;;;;;;;;4853838;29;20214;-61
2023/01/30 03:47:52;;;;;;;7.17;4.60;;;;;;;;;;4853345;29;20241;-61
2023/01/30 03:50:20;;;;;;;6.90;4.57;;;;;;;;;;4849905;29;20206;-62
2023/01/30 03:52:48;;;;;;;5.37;4.43;;;;;;;;;;4848987;29;20286;-61
2023/01/30 03:55:15;;;;;;;6.13;3.60;;;;;;;;;;4849455;29;20229;-62
2023/01/30 03:57:42;;;;;;;8.00;3.83;;;;;;;;;;4853445;29;20217;-63
2023/01/30 04:00:10;;;;;;;12.50;4.70;;;;;;;;;;4851455;29;20208;-62
2023/01/30 04:02:38;;;;;;;11.20;5.10;;;;;;;;;;4849705;29;20248;-62
2023/01/30 04:05:05;;;;;;;9.80;4.80;;;;;;;;;;4850580;29;20305;-62
2023/01/30 04:07:32;;;;;;;7.07;4.10;;;;;;;;;;4851772;29;20217;-62
2023/01/30 04:10:00;;;;;;;7.83;4.70;;;;;;;;;;4851708;29;20227;-62
2023/01/30 04:12:27;;;;;;;10.33;5.67;;;;;;;;;;4848417;29;20273;-63
2023/01/30 04:14:54;;;;;;;8.63;4.57;;;;;;;;;;4850443;29;20249;-62
2023/01/30 04:17:21;;;;;;;9.93;5.63;;;;;;;;;;4846480;29;20214;-62
2023/01/30 04:19:48;;;;;;;9.63;4.60;;;;;;;;;;4851664;29;20206;-62
2023/01/30 04:22:15;;;;;;;9.27;4.20;;;;;;;;;;4851824;29;20249;-62
2023/01/30 04:24:42;;;;;;;13.33;6.00;;;;;;;;;;4853630;29;20210;-62
2023/01/30 04:27:11;;;;;;;9.53;4.90;;;;;;;;;;4849233;29;20672;-63
2023/01/30 04:29:38;;;;;;;12.13;5.23;;;;;;;;;;4844550;29;20237;-62
2023/01/30 04:32:05;;;;;;;8.90;4.73;;;;;;;;;;4848163;29;20243;-62
2023/01/30 04:34:32;;;;;;;10.90;5.13;;;;;;;;;;4853113;29;20217;-62
2023/01/30 04:36:59;;;;;;;10.40;6.00;;;;;;;;;;4853146;29;20710;-62
2023/01/30 04:39:26;;;;;;;10.00;4.73;;;;;;;;;;4850023;29;20210;-62
2023/01/30 04:41:53;;;;;;;7.97;4.87;;;;;;;;;;4849763;29;20217;-63
2023/01/30 04:44:21;;;;;;;8.83;4.43;;;;;;;;;;4849362;29;20219;-62
2023/01/30 04:46:48;;;;;;;16.70;6.70;;;;;;;;;;4851397;29;20703;-62
2023/01/30 04:49:15;;;;;;;11.23;5.50;;;;;;;;;;4853110;29;20230;-62
2023/01/30 04:51:43;;;;;;;4.63;3.70;;;;;;;;;;4852436;29;20563;-62
2023/01/30 04:54:10;;;;;;;10.60;4.57;;;;;;;;;;4850716;29;20213;-62
2023/01/30 04:56:37;;;;;;;10.07;5.00;;;;;;;;;;4852143;29;20285;-62
2023/01/30 04:59:04;;;;;;;9.07;4.97;;;;;;;;;;4847009;29;20563;-62
2023/01/30 05:01:33;;;;;;;9.63;5.57;;;;;;;;;;4843846;29;20265;-62
2023/01/30 05:04:00;;;;;;;9.23;4.80;;;;;;;;;;4850363;29;20629;-62
2023/01/30 05:06:27;;;;;;;8.10;4.17;;;;;;;;;;4851472;29;20221;-62
2023/01/30 05:08:55;;;;;;;4.27;3.80;;;;;;;;;;4851637;29;20733;-61
2023/01/30 05:11:23;;;;;;;12.37;5.40;;;;;;;;;;4848216;29;20225;-62
2023/01/30 05:13:50;;;;;;;9.87;4.73;;;;;;;;;;4847052;29;20277;-62
2023/01/30 05:16:18;;;;;;;9.47;5.30;;;;;;;;;;4847631;29;20323;-62
2023/01/30 05:18:46;;;;;;;11.67;5.90;;;;;;;;;;4845415;29;20217;-62
2023/01/30 05:21:14;;;;;;;8.73;4.73;;;;;;;;;;4843332;29;20238;-63
2023/01/30 05:23:41;;;;;;;9.77;4.00;;;;;;;;;;4842404;29;20256;-62
2023/01/30 05:26:09;;;;;;;9.03;5.00;;;;;;;;;;4846218;29;20566;-63
2023/01/30 05:28:36;;;;;;;8.90;4.50;;;;;;;;;;4849777;29;20238;-63
2023/01/30 05:31:03;;;;;;;9.13;4.60;;;;;;;;;;4848434;29;20225;-62
2023/01/30 05:33:30;;;;;;;4.93;2.93;;;;;;;;;;4843681;29;20289;-62
2023/01/30 05:35:59;;;;;;;11.47;4.93;;;;;;;;;;4846944;29;20901;-62
2023/01/30 05:38:26;;;;;;;10.13;5.40;;;;;;;;;;4846933;29;20221;-62
2023/01/30 05:41:00;;;;;;;6.67;4.60;;;;;;;;;;4849260;29;20232;-62
2023/01/30 05:43:27;;;;;;;8.37;4.33;;;;;;;;;;4850741;29;20304;-62
2023/01/30 05:45:55;;;;;;;6.33;4.47;;;;;;;;;;4851828;29;20657;-62
2023/01/30 05:48:22;;;;;;;7.20;3.97;;;;;;;;;;4849406;29;20238;-62
2023/01/30 05:50:51;;;;;;;6.90;4.13;;;;;;;;;;4843983;29;20266;-63
2023/01/30 05:53:19;;;;;;;8.07;4.37;;;;;;;;;;4847064;29;20264;-62
2023/01/30 05:55:46;;;;;;;8.50;4.23;;;;;;;;;;4851662;29;20238;-60
2023/01/30 05:58:14;;;;;;;3.93;2.83;;;;;;;;;;4849906;29;20637;-60
2023/01/30 06:00:41;;;;;;;6.30;4.03;;;;;;;;;;4844452;29;20700;-63
2023/01/30 06:03:08;;;;;;;8.20;4.03;;;;;;;;;;4846017;29;20218;-62
2023/01/30 06:05:37;;;;;;;4.10;3.07;;;;;;;;;;4849590;29;20228;-62
2023/01/30 06:08:05;;;;;;;5.50;3.23;;;;;;;;;;4851183;29;20218;-63
2023/01/30 06:10:33;;;;;;;5.23;3.53;;;;;;;;;;4846757;29;20238;-63
2023/01/30 06:13:00;;;;;;;4.60;2.60;;;;;;;;;;4849649;29;20220;-61
2023/01/30 06:15:27;;;;;;;3.10;2.67;;;;;;;;;;4851353;29;20221;-61
2023/01/30 06:17:54;;;;;;;4.50;3.00;;;;;;;;;;4847278;29;20209;-60
2023/01/30 06:20:21;;;;;;;3.70;3.20;;;;;;;;;;4847275;29;20237;-60
2023/01/30 06:22:48;;;;;;;8.00;3.33;;;;;;;;;;4850934;29;20393;-60
2023/01/30 06:25:15;;;;;;;6.33;3.27;;;;;;;;;;4846888;29;20213;-60
2023/01/30 06:27:45;;;;;;;4.37;2.90;;;;;;;;;;4844188;29;20670;-60
2023/01/30 06:30:13;;;;;;;6.03;3.43;;;;;;;;;;4843819;29;20237;-62
2023/01/30 06:32:41;;;;;;;5.47;2.83;;;;;;;;;;4848802;29;20206;-61
2023/01/30 06:35:09;;;;;;;4.40;3.37;;;;;;;;;;4843261;29;20845;-63
2023/01/30 06:37:39;;;;;;;5.97;3.67;;;;;;;;;;4849600;29;20253;-61
2023/01/30 06:40:06;;;;;;;4.77;3.40;;;;;;;;;;4848586;29;20230;-61
2023/01/30 06:42:33;;;;;;;5.60;3.40;;;;;;;;;;4851076;29;20690;-61
2023/01/30 06:45:02;;;;;;;6.47;4.30;;;;;;;;;;4846363;29;20221;-61
2023/01/30 06:47:29;;;;;;;6.60;3.27;;;;;;;;;;4847187;29;20449;-61
2023/01/30 06:49:56;;;;;;;5.10;3.43;;;;;;;;;;4847663;29;20241;-60
2023/01/30 06:52:23;;;;;;;11.33;3.73;;;;;;;;;;4850977;29;20632;-63
2023/01/30 06:54:50;;;;;;;5.97;3.40;;;;;;;;;;4850427;29;20253;-63
2023/01/30 06:57:17;;;;;;;4.67;3.07;;;;;;;;;;4849131;29;20222;-63
2023/01/30 06:59:44;;;;;;;3.80;2.73;;;;;;;;;;4850763;29;20210;-63
2023/01/30 07:02:13;;;;;;;5.30;2.53;;;;;;;;;;4849442;29;20221;-63
2023/01/30 07:04:41;;;;;;;5.60;3.03;;;;;;;;;;4845751;29;20214;-60
2023/01/30 07:07:08;;;;;;;6.63;3.80;;;;;;;;;;4845895;29;20218;-61
2023/01/30 07:09:35;;;;;;;3.30;2.80;;;;;;;;;;4848164;29;20238;-61
2023/01/30 07:12:02;;;;;;;15.83;4.47;;;;;;;;;;4849213;29;21153;-61
2023/01/30 07:14:29;;;;;;;3.37;3.10;;;;;;;;;;4850747;29;20282;-61
2023/01/30 07:16:56;;;;;;;4.47;3.17;;;;;;;;;;4849005;29;20768;-61
2023/01/30 07:19:24;;;;;;;3.37;3.03;;;;;;;;;;4850877;29;20218;-61
2023/01/30 07:21:51;;;;;;;3.90;3.10;;;;;;;;;;4850736;29;20245;-61
2023/01/30 07:24:18;;;;;;;4.90;2.93;;;;;;;;;;4848355;29;20640;-61
2023/01/30 07:26:48;;;;;;;3.47;2.87;;;;;;;;;;4850565;29;20223;-61
2023/01/30 07:29:15;;;;;;;3.10;2.73;;;;;;;;;;4849039;29;20238;-61
2023/01/30 07:31:42;;;;;;;5.60;3.50;;;;;;;;;;4845948;29;20241;-61
2023/01/30 07:34:09;;;;;;;5.20;3.43;;;;;;;;;;4846118;29;20226;-61
2023/01/30 07:36:37;;;;;;;5.67;2.10;;;;;;;;;;4854649;29;20221;-61
2023/01/30 07:39:04;;;;;;;5.33;2.90;;;;;;;;;;4852218;29;20588;-62
2023/01/30 07:41:31;;;;;;;4.83;2.30;;;;;;;;;;4849466;29;20248;-61
2023/01/30 07:43:58;;;;;;;2.97;2.67;;;;;;;;;;4850851;29;20218;-61
2023/01/30 07:46:26;;;;;;;3.87;3.10;;;;;;;;;;4851103;29;20225;-61
2023/01/30 07:48:53;;;;;;;3.47;2.40;;;;;;;;;;4849314;29;20321;-61
2023/01/30 07:51:20;;;;;;;3.40;2.23;;;;;;;;;;4849169;29;21688;-61
2023/01/30 07:53:51;;;;;;;7.00;3.10;;;;;;;;;;4849228;29;20254;-64
2023/01/30 07:56:19;;;;;;;3.07;2.20;;;;;;;;;;4852504;29;20226;-61
2023/01/30 07:58:46;;;;;;;3.73;2.67;;;;;;;;;;4853639;29;20220;-61
2023/01/30 08:01:13;;;;;;;3.10;2.77;;;;;;;;;;4848934;29;20673;-61
2023/01/30 08:03:40;;;;;;;3.93;3.23;;;;;;;;;;4848830;29;20218;-61
2023/01/30 08:06:07;;;;;;;4.17;2.70;;;;;;;;;;4848900;29;20214;-61
2023/01/30 08:08:34;;;;;;;3.00;2.70;;;;;;;;;;4853975;29;20218;-61
2023/01/30 08:11:03;;;;;;;3.97;2.80;;;;;;;;;;4851966;29;20245;-62
2023/01/30 08:13:30;;;;;;;6.53;2.80;;;;;;;;;;4848995;29;20278;-61
2023/01/30 08:15:59;;;;;;;4.63;3.00;;;;;;;;;;4849741;29;20621;-61
2023/01/30 08:18:26;;;;;;;5.63;2.87;;;;;;;;;;4848508;29;20237;-62
2023/01/30 08:20:57;;;;;;;6.63;3.40;;;;;;;;;;4849562;29;20365;-61
2023/01/30 08:23:24;;;;;;;3.07;2.77;;;;;;;;;;4848635;29;20260;-62
2023/01/30 08:25:54;;;;;;;3.17;2.60;;;;;;;;;;4848032;29;20318;-61
2023/01/30 08:28:22;;;;;;;2.33;2.13;;;;;;;;;;4852056;29;20765;-62
2023/01/30 08:30:51;;;;;;;3.27;2.23;;;;;;;;;;4853499;29;20246;-62
2023/01/30 08:33:18;;;;;;;2.70;2.43;;;;;;;;;;4850053;29;20570;-62
2023/01/30 08:35:45;;;;;;;2.17;1.97;;;;;;;;;;4849864;29;20674;-62
2023/01/30 08:38:12;;;;;;;3.10;2.37;;;;;;;;;;4848338;29;20765;-62
2023/01/30 08:40:39;;;;;;;3.40;2.00;;;;;;;;;;4849706;29;20218;-62
2023/01/30 08:43:07;;;;;;;9.70;2.87;;;;;;;;;;4851656;29;20237;-62
2023/01/30 08:45:35;;;;;;;2.60;2.17;;;;;;;;;;4852693;29;20223;-61
2023/01/30 08:48:03;;;;;;;2.80;2.37;;;;;;;;;;4849359;29;20218;-64
2023/01/30 08:50:30;;;;;;;2.00;1.80;;;;;;;;;;4849325;29;20245;-62
2023/01/30 08:52:57;;;;;;;2.70;2.37;;;;;;;;;;4847850;29;20233;-62
2023/01/30 08:55:24;;;;;;;2.40;2.20;;;;;;;;;;4851905;29;20214;-62
2023/01/30 08:57:51;;;;;;;3.60;1.60;;;;;;;;;;4850771;29;20274;-63
2023/01/30 09:00:19;;;;;;;1.77;1.60;;;;;;;;;;4852591;29;20290;-62
2023/01/30 09:02:47;;;;;;;2.23;2.00;;;;;;;;;;4852393;29;20222;-62
2023/01/30 09:05:14;;;;;;;2.33;1.63;;;;;;;;;;4850187;29;20326;-62
2023/01/30 09:07:41;;;;;;;1.47;1.17;;;;;;;;;;4852844;29;20312;-60
2023/01/30 09:10:09;;;;;;;2.17;2.00;;;;;;;;;;4846765;29;20345;-62
2023/01/30 09:12:36;;;;;;;12.07;1.77;;;;;;;;;;4847630;29;20348;-63
2023/01/30 09:15:03;;;;;;;1.50;1.40;;;;;;;;;;4847585;29;20826;-63
2023/01/30 09:17:30;;;;;;;1.03;1.03;;;;;;;;;;4852603;29;20274;-62
2023/01/30 09:19:58;;;;;;;3.00;1.57;;;;;;;;;;4850296;29;20600;-62
2023/01/30 09:22:26;;;;;;;6.47;2.57;;;;;;;;;;4852043;29;20333;-62
2023/01/30 09:24:53;;;;;;;1.23;1.17;;;;;;;;;;4849943;29;20270;-62
2023/01/30 09:27:20;;;;;;;1.53;1.17;;;;;;;;;;4847618;29;20221;-61
2023/01/30 09:29:47;;;;;;;1.70;1.60;;;;;;;;;;4847514;29;20238;-62
2023/01/30 09:32:14;;;;;;;1.00;1.00;;;;;;;;;;4850477;29;20221;-61
2023/01/30 09:34:41;;;;;;;1.42;1.33;;;;;;;;;;4851455;29;20868;-61
2023/01/30 09:37:09;;;;;;;0.93;0.93;;;;;;;;;;4850645;29;20222;-61
2023/01/30 09:39:36;;;;;;;1.30;1.20;;;;;;;;;;4846966;29;20334;-62
2023/01/30 09:42:15;;;;;;;3.90;0.97;;;;;;;;;;4850668;29;20272;-62
2023/01/30 09:44:54;;;;;;;1.83;1.60;;;;;;;;;;4838239;29;20210;-60
2023/01/30 09:47:26;;;;;;;1.20;0.80;;;;;;;;;;4846149;29;20206;-60
2023/01/30 09:49:55;;;;;;;0.80;0.80;;;;;;;;;;4848786;29;20302;-61
2023/01/30 09:52:28;;;;;;;1.20;1.10;;;;;;;;;;4848778;29;20210;-62
2023/01/30 09:54:59;;;;;;;3.23;1.80;;;;;;;;;;4852419;29;20620;-61
2023/01/30 09:57:26;;;;;;;1.10;1.10;;;;;;;;;;4848458;29;20579;-61
2023/01/30 09:59:56;;;;;;;0.80;0.80;;;;;;;;;;4847072;29;20297;-60
2023/01/30 10:02:31;;;;;;;1.30;1.20;;;;;;;;;;4848182;29;20326;-62
2023/01/30 10:05:00;;;;;;;0.53;0.47;;;;;;;;;;4845998;29;20208;-60
2023/01/30 10:07:32;;;;;;;0.60;0.60;;;;;;;;;;4847356;29;20217;-60
2023/01/30 10:10:02;;;;;;;1.20;0.90;;;;;;;;;;4849876;29;20312;-60
2023/01/30 10:12:38;;;;;;;0.50;0.40;;;;;;;;;;4851609;29;20214;-61
2023/01/30 10:15:29;;;;;;;0.70;0.70;;;;;;;;;;4845529;29;20220;-61
2023/01/30 10:18:11;;;;;;;0.60;0.60;;;;;;;;;;4817749;29;20452;-62
2023/01/30 10:20:42;;;;;;;0.53;0.53;;;;;;;;;;4833155;29;20290;-61
2023/01/30 10:23:19;;;;;;;0.67;0.67;;;;;;;;;;4849770;29;20247;-61
2023/01/30 10:25:47;;;;;;;0.70;0.70;;;;;;;;;;4849387;29;20221;-61
2023/01/30 10:28:18;;;;;;;0.47;0.47;;;;;;;;;;4846447;29;20217;-60
2023/01/30 10:30:46;;;;;;;0.30;0.30;;;;;;;;;;4845782;29;20291;-61
2023/01/30 10:33:19;;;;;;;0.50;0.50;;;;;;;;;;4860821;29;20356;-61
2023/01/30 10:35:58;;;;;;;11.27;0.77;;;;;;;;;;4870340;29;20219;-61
2023/01/30 10:38:30;;;;;;;4.83;0.90;;;;;;;;;;4868437;29;20277;-63
2023/01/30 10:40:59;;;;;;;0.90;0.90;;;;;;;;;;4859061;29;20217;-61
2023/01/30 10:43:28;;;;;;;2.33;0.77;;;;;;;;;;4846287;29;20605;-61
2023/01/30 10:45:59;;;;;;;2.83;1.00;;;;;;;;;;4847864;29;20210;-63
2023/01/30 10:48:43;;;;;;;1.07;0.77;;;;;;;;;;4847874;29;20600;-66
2023/01/30 10:51:17;;;;;;;0.60;0.60;;;;;;;;;;4849640;29;20238;-62
2023/01/30 10:53:48;;;;;;;0.40;0.40;;;;;;;;;;4851405;29;20741;-62
2023/01/30 10:56:19;;;;;;;0.50;0.50;;;;;;;;;;4849639;29;20214;-63
2023/01/30 10:58:49;;;;;;;0.83;0.80;;;;;;;;;;4850568;29;20298;-59
2023/01/30 11:01:20;;;;;;;0.70;0.70;;;;;;;;;;4846095;29;20214;-63
2023/01/30 11:03:48;;;;;;;0.43;0.43;;;;;;;;;;4846280;29;20225;-63
2023/01/30 11:06:16;;;;;;;0.57;0.57;;;;;;;;;;4839562;29;20211;-62
2023/01/30 11:08:43;;;;;;;0.67;0.67;;;;;;;;;;4846810;29;20229;-62
2023/01/30 11:11:28;;;;;;;8.10;1.10;;;;;;;;;;4847103;29;20298;-62
2023/01/30 11:14:02;;;;;;;0.93;0.67;;;;;;;;;;4855203;29;20210;-62
2023/01/30 11:16:29;;;;;;;3.70;1.00;;;;;;;;;;4854672;29;20429;-62
2023/01/30 11:19:00;;;;;;;0.50;0.50;;;;;;;;;;4853262;29;20267;-62
2023/01/30 11:21:28;;;;;;;2.53;0.50;;;;;;;;;;4849318;29;20246;-62
2023/01/30 11:23:55;;;;;;;0.50;0.50;;;;;;;;;;4852983;29;20242;-62
2023/01/30 11:26:24;;;;;;;1.07;0.67;;;;;;;;;;4850158;29;20310;-62
2023/01/30 11:28:52;;;;;;;0.50;0.50;;;;;;;;;;4854937;29;20218;-65
2023/01/30 11:31:21;;;;;;;0.80;0.80;;;;;;;;;;4852466;29;20241;-62
2023/01/30 11:33:59;;;;;;;0.70;0.70;;;;;;;;;;4852655;29;20281;-62
2023/01/30 11:36:27;;;;;;;1.10;1.10;;;;;;;;;;4849816;29;20233;-63
2023/01/30 11:38:56;;;;;;;0.87;0.87;;;;;;;;;;4850579;29;20249;-61
2023/01/30 11:41:24;;;;;;;6.43;1.10;;;;;;;;;;4852447;29;20366;-62
2023/01/30 11:43:59;;;;;;;2.43;1.00;;;;;;;;;;4852681;29;20302;-61
2023/01/30 11:46:29;;;;;;;2.13;0.70;;;;;;;;;;4854214;29;20214;-62
2023/01/30 11:48:59;;;;;;;1.37;1.10;;;;;;;;;;4852278;29;20241;-62
2023/01/30 11:51:27;;;;;;;1.00;1.00;;;;;;;;;;4848851;29;20721;-62
2023/01/30 11:53:55;;;;;;;0.50;0.50;;;;;;;;;;4850656;29;20207;-63
2023/01/30 11:56:23;;;;;;;1.90;0.73;;;;;;;;;;4850272;29;20232;-63
2023/01/30 11:58:57;;;;;;;6.13;1.10;;;;;;;;;;4853177;29;20286;-63
2023/01/30 12:01:27;;;;;;;0.60;0.60;;;;;;;;;;4853248;29;20506;-63
2023/01/30 12:03:55;;;;;;;0.67;0.67;;;;;;;;;;4867495;29;20427;-63
2023/01/30 12:06:23;;;;;;;2.73;0.70;;;;;;;;;;4867200;29;20220;-63
2023/01/30 12:08:52;;;;;;;0.97;0.87;;;;;;;;;;4850851;29;20343;-63
2023/01/30 12:11:25;;;;;;;12.10;1.17;;;;;;;;;;4850758;29;20334;-62
2023/01/30 12:13:55;;;;;;;4.30;0.50;;;;;;;;;;4852122;29;20218;-62
2023/01/30 12:16:24;;;;;;;0.50;0.50;;;;;;;;;;4853805;29;20218;-62
2023/01/30 12:18:55;;;;;;;0.53;0.53;;;;;;;;;;4854078;29;20271;-63
2023/01/30 12:21:27;;;;;;;0.50;0.50;;;;;;;;;;4850210;29;20856;-63
2023/01/30 12:23:57;;;;;;;0.57;0.57;;;;;;;;;;4852244;29;20321;-63
2023/01/30 12:26:27;;;;;;;1.53;0.50;;;;;;;;;;4850115;29;20210;-63
2023/01/30 12:28:57;;;;;;;2.20;0.83;;;;;;;;;;4850038;29;20214;-63
2023/01/30 12:31:26;;;;;;;0.60;0.60;;;;;;;;;;4853827;29;20609;-64
2023/01/30 12:33:55;;;;;;;0.97;0.80;;;;;;;;;;4853320;29;20218;-62
2023/01/30 12:36:27;;;;;;;0.60;0.60;;;;;;;;;;4847589;29;20222;-63
2023/01/30 12:38:57;;;;;;;0.87;0.70;;;;;;;;;;4849845;29;20214;-65
2023/01/30 12:41:33;;;;;;;0.60;0.60;;;;;;;;;;4851530;29;20245;-60
2023/01/30 12:44:08;;;;;;;1.37;0.60;;;;;;;;;;4849800;29;20206;-60
2023/01/30 12:46:44;;;;;;;0.30;0.30;;;;;;;;;;4870452;29;20213;-60
2023/01/30 12:49:22;;;;;;;0.60;0.60;;;;;;;;;;4850303;29;20584;-60
2023/01/30 12:51:57;;;;;;;1.07;0.80;;;;;;;;;;4847384;29;20310;-61
2023/01/30 12:54:32;;;;;;;0.63;0.63;;;;;;;;;;4847871;29;20207;-64
2023/01/30 12:57:04;;;;;;;2.00;0.97;;;;;;;;;;4847470;29;20261;-61
2023/01/30 12:59:37;;;;;;;0.60;0.60;;;;;;;;;;4853072;29;20218;-63
2023/01/30 13:02:20;;;;;;;0.97;0.60;;;;;;;;;;4854810;29;20293;-63
2023/01/30 13:04:50;;;;;;;0.47;0.47;;;;;;;;;;4849489;29;20219;-62
2023/01/30 13:07:19;;;;;;;0.50;0.50;;;;;;;;;;4847006;29;20238;-62
2023/01/30 13:09:53;;;;;;;0.97;0.83;;;;;;;;;;4852567;29;20214;-62
2023/01/30 13:12:24;;;;;;;0.70;0.70;;;;;;;;;;4850533;29;20240;-64
2023/01/30 13:14:57;;;;;;;0.50;0.50;;;;;;;;;;4848890;29;20222;-62
2023/01/30 13:17:42;;;;;;;2.90;0.60;;;;;;;;;;4850064;29;20226;-62
2023/01/30 13:20:15;;;;;;;0.87;0.50;;;;;;;;;;4845957;29;20246;-62
2023/01/30 13:22:47;;;;;;;0.60;0.60;;;;;;;;;;4844772;29;20250;-62
2023/01/30 13:25:19;;;;;;;0.37;0.37;;;;;;;;;;4843630;29;20432;-62
2023/01/30 13:27:54;;;;;;;0.50;0.50;;;;;;;;;;4857850;29;20221;-62
2023/01/30 13:30:26;;;;;;;2.33;1.40;;;;;;;;;;4840096;29;20225;-64
2023/01/30 13:32:55;;;;;;;0.80;0.80;;;;;;;;;;4828561;29;20325;-63
2023/01/30 13:35:24;;;;;;;1.00;0.90;;;;;;;;;;4836684;29;20305;-62
2023/01/30 13:37:53;;;;;;;1.70;1.00;;;;;;;;;;4851932;29;20923;-62
2023/01/30 13:40:21;;;;;;;0.73;0.60;;;;;;;;;;4849075;29;20310;-63
2023/01/30 13:42:50;;;;;;;0.97;0.90;;;;;;;;;;4847282;29;20210;-61
2023/01/30 13:45:20;;;;;;;1.20;1.10;;;;;;;;;;4846820;29;20222;-64
2023/01/30 13:47:53;;;;;;;2.03;1.00;;;;;;;;;;4851530;29;20221;-63
2023/01/30 13:50:27;;;;;;;2.10;1.13;;;;;;;;;;4849768;29;20218;-66
2023/01/30 13:53:00;;;;;;;3.10;1.23;;;;;;;;;;4845098;29;20238;-61
2023/01/30 13:55:32;;;;;;;3.50;1.10;;;;;;;;;;4846139;29;20615;-62
2023/01/30 13:58:01;;;;;;;0.80;0.80;;;;;;;;;;4844719;29;20678;-62
2023/01/30 14:00:31;;;;;;;0.80;0.80;;;;;;;;;;4856973;29;20228;-62
2023/01/30 14:03:17;;;;;;;3.53;1.53;;;;;;;;;;4848461;29;20214;-62
2023/01/30 14:06:02;;;;;;;4.53;1.40;;;;;;;;;;4845637;29;20214;-61
2023/01/30 14:08:30;;;;;;;1.17;0.70;;;;;;;;;;4849906;29;20218;-60
2023/01/30 14:10:58;;;;;;;1.00;1.00;;;;;;;;;;4851335;29;20234;-66
2023/01/30 14:13:26;;;;;;;0.80;0.80;;;;;;;;;;4847677;29;20211;-62
2023/01/30 14:15:54;;;;;;;0.77;0.77;;;;;;;;;;4854336;29;20218;-63
2023/01/30 14:18:23;;;;;;;1.93;0.97;;;;;;;;;;4842473;29;20757;-64
2023/01/30 14:20:51;;;;;;;3.27;1.00;;;;;;;;;;4842551;29;20230;-64
2023/01/30 14:23:23;;;;;;;0.50;0.50;;;;;;;;;;4844772;29;20624;-62
2023/01/30 14:25:51;;;;;;;1.20;1.10;;;;;;;;;;4852028;29;20222;-63
2023/01/30 14:28:48;;;;;;;0.70;0.70;;;;;;;;;;4846695;29;20798;-63
2023/01/30 14:31:34;;;;;;;2.20;0.90;;;;;;;;;;4841321;29;20322;-63
2023/01/30 14:34:01;;;;;;;0.80;0.80;;;;;;;;;;4842710;29;20270;-64
2023/01/30 14:36:37;;;;;;;0.70;0.70;;;;;;;;;;4848315;29;20286;-63
2023/01/30 14:39:23;;;;;;;2.63;0.90;;;;;;;;;;4848541;29;20214;-63
2023/01/30 14:42:06;;;;;;;0.70;0.70;;;;;;;;;;4842715;29;20211;-62
2023/01/30 14:44:51;;;;;;;1.20;1.00;;;;;;;;;;4841270;29;20215;-64
2023/01/30 14:47:20;;;;;;;1.63;1.30;;;;;;;;;;4847495;29;20221;-63
2023/01/30 14:49:47;;;;;;;1.83;0.80;;;;;;;;;;4855085;29;20230;-63
2023/01/30 14:52:25;;;;;;;1.63;1.10;;;;;;;;;;4850941;29;20234;-64
2023/01/30 14:54:53;;;;;;;1.17;1.17;;;;;;;;;;4853790;29;20218;-64
2023/01/30 14:57:22;;;;;;;2.50;1.57;;;;;;;;;;4850239;29;20233;-63
2023/01/30 14:59:51;;;;;;;1.40;0.90;;;;;;;;;;4848462;29;20825;-62
2023/01/30 15:02:25;;;;;;;3.07;0.97;;;;;;;;;;4848748;29;20299;-63